createdAt,value
2018-11-01T00:00:18.719Z,0
2018-11-01T00:01:27.359Z,0
2018-11-01T00:02:36.262Z,0
2018-11-01T00:03:44.908Z,0
2018-11-01T00:04:53.544Z,0
2018-11-01T00:06:02.184Z,0
2018-11-01T00:07:10.820Z,0
2018-11-01T00:08:19.464Z,0
2018-11-01T00:09:28.105Z,0
2018-11-01T00:10:37.006Z,0
2018-11-01T00:11:45.641Z,0
2018-11-01T00:12:54.287Z,0
2018-11-01T00:14:02.928Z,0
2018-11-01T00:15:11.572Z,0
2018-11-01T00:16:20.750Z,0
2018-11-01T00:17:29.393Z,0
2018-11-01T00:18:38.026Z,0
2018-11-01T00:19:46.668Z,0
2018-11-01T00:20:55.309Z,0
2018-11-01T00:22:04.217Z,0
2018-11-01T00:23:12.860Z,0
2018-11-01T00:24:22.046Z,0
2018-11-01T00:25:30.953Z,0
2018-11-01T00:26:39.594Z,0
2018-11-01T00:27:48.505Z,0
2018-11-01T00:28:57.424Z,0
2018-11-01T00:30:06.071Z,0
2018-11-01T00:31:14.710Z,0
2018-11-01T00:32:23.353Z,0
2018-11-01T00:33:31.993Z,0
2018-11-01T00:34:40.637Z,0
2018-11-01T00:35:49.277Z,0
2018-11-01T00:36:57.914Z,0
2018-11-01T00:38:06.816Z,0
2018-11-01T00:39:15.455Z,0
2018-11-01T00:40:24.388Z,0
2018-11-01T00:41:33.287Z,0
2018-11-01T00:42:41.925Z,0
2018-11-01T00:43:50.560Z,0
2018-11-01T00:44:59.204Z,0
2018-11-01T00:46:07.843Z,0
2018-11-01T00:47:16.484Z,0
2018-11-01T00:48:25.130Z,0
2018-11-01T00:49:33.764Z,0
2018-11-01T00:50:42.407Z,0
2018-11-01T00:51:51.044Z,0
2018-11-01T00:52:59.690Z,0
2018-11-01T00:54:08.327Z,0
2018-11-01T00:55:16.964Z,0
2018-11-01T00:56:25.863Z,0
2018-11-01T00:57:34.507Z,0
2018-11-01T00:58:43.148Z,0
2018-11-01T00:59:51.787Z,0
2018-11-01T01:01:00.425Z,0
2018-11-01T01:02:09.345Z,0
2018-11-01T01:03:18.505Z,0
2018-11-01T01:04:27.143Z,0
2018-11-01T01:05:36.042Z,0
2018-11-01T01:06:44.677Z,0
2018-11-01T01:07:53.321Z,0
2018-11-01T01:09:01.957Z,0
2018-11-01T01:10:10.598Z,0
2018-11-01T01:11:19.238Z,0
2018-11-01T01:12:28.146Z,0
2018-11-01T01:13:36.787Z,0
2018-11-01T01:14:45.429Z,0
2018-11-01T01:15:54.076Z,0
2018-11-01T01:17:02.979Z,0
2018-11-01T01:18:11.621Z,0
2018-11-01T01:19:20.522Z,0
2018-11-01T01:20:29.168Z,0
2018-11-01T01:21:37.804Z,0
2018-11-01T01:22:46.713Z,0
2018-11-01T01:23:55.353Z,0
2018-11-01T01:25:03.997Z,0
2018-11-01T01:26:12.632Z,0
2018-11-01T01:27:21.273Z,0
2018-11-01T01:28:29.914Z,0
2018-11-01T01:29:38.564Z,0
2018-11-01T01:30:47.202Z,0
2018-11-01T01:31:55.841Z,0
2018-11-01T01:33:04.481Z,0
2018-11-01T01:34:13.118Z,0
2018-11-01T01:35:21.761Z,0
2018-11-01T01:36:30.399Z,0
2018-11-01T01:37:39.039Z,0
2018-11-01T01:38:47.682Z,0
2018-11-01T01:39:56.315Z,0
2018-11-01T01:41:04.958Z,0
2018-11-01T01:42:13.597Z,0
2018-11-01T01:43:22.228Z,0
2018-11-01T01:44:30.877Z,0
2018-11-01T01:45:39.513Z,0
2018-11-01T01:46:48.160Z,0
2018-11-01T01:47:56.831Z,0
2018-11-01T01:49:05.432Z,0
2018-11-01T01:50:14.129Z,0
2018-11-01T01:51:22.717Z,0
2018-11-01T01:52:31.356Z,0
2018-11-01T01:53:39.986Z,0
2018-11-01T01:54:48.631Z,0
2018-11-01T01:55:57.535Z,0
2018-11-01T01:57:06.469Z,0
2018-11-01T01:58:15.097Z,0
2018-11-01T01:59:24.007Z,0
2018-11-01T02:00:32.646Z,0
2018-11-01T02:01:41.290Z,0
2018-11-01T02:02:49.918Z,0
2018-11-01T02:03:58.560Z,0
2018-11-01T02:05:07.196Z,0
2018-11-01T02:06:15.847Z,0
2018-11-01T02:07:24.485Z,0
2018-11-01T02:08:33.120Z,0
2018-11-01T02:09:41.755Z,0
2018-11-01T02:10:50.394Z,0
2018-11-01T02:11:59.040Z,0
2018-11-01T02:13:07.684Z,0
2018-11-01T02:14:16.327Z,0
2018-11-01T02:15:24.956Z,0
2018-11-01T02:16:33.604Z,0
2018-11-01T02:17:42.516Z,0
2018-11-01T02:18:51.160Z,0
2018-11-01T02:20:00.047Z,0
2018-11-01T02:21:08.694Z,0
2018-11-01T02:22:17.332Z,0
2018-11-01T02:23:25.976Z,0
2018-11-01T02:24:34.610Z,0
2018-11-01T02:25:43.248Z,0
2018-11-01T02:26:51.891Z,0
2018-11-01T02:28:00.535Z,0
2018-11-01T02:29:09.438Z,0
2018-11-01T02:30:18.606Z,0
2018-11-01T02:31:27.829Z,0
2018-11-01T02:32:36.417Z,0
2018-11-01T02:33:45.068Z,0
2018-11-01T02:34:53.707Z,0
2018-11-01T02:36:02.352Z,0
2018-11-01T02:37:10.991Z,0
2018-11-01T02:38:19.650Z,0
2018-11-01T02:39:28.601Z,0
2018-11-01T02:40:37.516Z,0
2018-11-01T02:41:46.148Z,0
2018-11-01T02:42:55.053Z,0
2018-11-01T02:44:03.965Z,0
2018-11-01T02:45:12.613Z,0
2018-11-01T02:46:21.247Z,0
2018-11-01T02:47:29.894Z,0
2018-11-01T02:48:38.805Z,0
2018-11-01T02:49:47.447Z,0
2018-11-01T02:50:56.093Z,0
2018-11-01T02:52:04.748Z,0
2018-11-01T02:53:13.379Z,0
2018-11-01T02:54:22.019Z,0
2018-11-01T02:55:30.660Z,0
2018-11-01T02:56:39.297Z,0
2018-11-01T02:57:47.945Z,0
2018-11-01T02:58:56.582Z,0
2018-11-01T03:00:05.226Z,0
2018-11-01T03:01:13.861Z,0
2018-11-01T03:02:22.767Z,0
2018-11-01T03:03:31.413Z,0
2018-11-01T03:04:40.064Z,0
2018-11-01T03:05:48.706Z,0
2018-11-01T03:06:57.339Z,0
2018-11-01T03:08:05.979Z,0
2018-11-01T03:09:14.620Z,0
2018-11-01T03:10:23.270Z,0
2018-11-01T03:11:31.908Z,0
2018-11-01T03:12:40.548Z,0
2018-11-01T03:13:49.475Z,0
2018-11-01T03:14:58.123Z,0
2018-11-01T03:16:06.755Z,0
2018-11-01T03:17:15.735Z,0
2018-11-01T03:18:24.303Z,0
2018-11-01T03:19:33.210Z,0
2018-11-01T03:20:41.856Z,0
2018-11-01T03:21:50.762Z,0
2018-11-01T03:22:59.403Z,0
2018-11-01T03:24:08.042Z,0
2018-11-01T03:25:16.960Z,0
2018-11-01T03:26:25.679Z,0
2018-11-01T03:27:34.246Z,0
2018-11-01T03:28:42.881Z,0
2018-11-01T03:29:51.796Z,0
2018-11-01T03:31:00.437Z,0
2018-11-01T03:32:09.628Z,0
2018-11-01T03:33:18.798Z,0
2018-11-01T03:34:27.450Z,0
2018-11-01T03:35:36.410Z,0
2018-11-01T03:36:45.002Z,0
2018-11-01T03:37:53.686Z,0
2018-11-01T03:39:02.752Z,0
2018-11-01T03:40:11.307Z,0
2018-11-01T03:41:19.950Z,0
2018-11-01T03:42:28.592Z,0
2018-11-01T03:43:37.228Z,0
2018-11-01T03:44:45.871Z,0
2018-11-01T03:45:54.511Z,0
2018-11-01T03:47:03.443Z,0
2018-11-01T03:48:12.075Z,0
2018-11-01T03:49:20.718Z,0
2018-11-01T03:50:29.359Z,0
2018-11-01T03:51:38.019Z,0
2018-11-01T03:52:46.636Z,0
2018-11-01T03:53:55.610Z,0
2018-11-01T03:55:04.925Z,0
2018-11-01T03:56:13.850Z,0
2018-11-01T03:57:22.487Z,0
2018-11-01T03:58:31.125Z,0
2018-11-01T03:59:40.032Z,0
2018-11-01T04:00:48.669Z,0
2018-11-01T04:01:57.318Z,0
2018-11-01T04:03:05.953Z,0
2018-11-01T04:04:14.867Z,0
2018-11-01T04:05:23.501Z,0
2018-11-01T04:06:32.412Z,0
2018-11-01T04:07:41.320Z,0
2018-11-01T04:08:49.957Z,0
2018-11-01T04:09:58.596Z,0
2018-11-01T04:11:07.787Z,0
2018-11-01T04:12:16.688Z,0
2018-11-01T04:13:25.336Z,0
2018-11-01T04:14:34.228Z,0
2018-11-01T04:15:42.870Z,0
2018-11-01T04:16:51.531Z,0
2018-11-01T04:18:00.153Z,0
2018-11-01T04:19:09.334Z,0
2018-11-01T04:20:17.959Z,0
2018-11-01T04:21:26.606Z,0
2018-11-01T04:22:35.503Z,0
2018-11-01T04:23:44.437Z,0
2018-11-01T04:24:53.066Z,0
2018-11-01T04:26:01.712Z,0
2018-11-01T04:27:10.621Z,0
2018-11-01T04:28:19.268Z,0
2018-11-01T04:29:28.421Z,0
2018-11-01T04:30:37.322Z,0
2018-11-01T04:31:45.958Z,0
2018-11-01T04:32:54.979Z,0
2018-11-01T04:34:03.803Z,0
2018-11-01T04:35:12.699Z,0
2018-11-01T04:36:21.369Z,0
2018-11-01T04:37:29.984Z,0
2018-11-01T04:38:38.905Z,0
2018-11-01T04:39:47.548Z,0
2018-11-01T04:40:56.182Z,0
2018-11-01T04:42:04.832Z,0
2018-11-01T04:43:13.763Z,0
2018-11-01T04:44:22.773Z,0
2018-11-01T04:45:31.683Z,0
2018-11-01T04:46:40.341Z,0
2018-11-01T04:47:49.274Z,0
2018-11-01T04:48:57.604Z,0
2018-11-01T04:50:06.234Z,0
2018-11-01T04:51:14.887Z,0
2018-11-01T04:52:23.521Z,0
2018-11-01T04:53:32.155Z,0
2018-11-01T04:54:40.791Z,0
2018-11-01T04:55:49.693Z,0
2018-11-01T04:56:58.340Z,0
2018-11-01T04:58:06.974Z,0
2018-11-01T04:59:15.618Z,0
2018-11-01T05:00:24.253Z,0
2018-11-01T05:01:33.168Z,0
2018-11-01T05:02:41.803Z,0
2018-11-01T05:03:50.446Z,0
2018-11-01T05:04:59.392Z,0
2018-11-01T05:06:08.032Z,0
2018-11-01T05:07:16.667Z,0
2018-11-01T05:08:25.309Z,0
2018-11-01T05:09:33.941Z,0
2018-11-01T05:10:42.582Z,0
2018-11-01T05:11:51.226Z,0
2018-11-01T05:13:00.251Z,0
2018-11-01T05:14:09.149Z,0
2018-11-01T05:15:17.825Z,0
2018-11-01T05:16:26.421Z,0
2018-11-01T05:17:35.056Z,0
2018-11-01T05:18:43.703Z,0
2018-11-01T05:19:52.333Z,0
2018-11-01T05:21:00.976Z,0
2018-11-01T05:22:09.609Z,0
2018-11-01T05:23:18.257Z,0
2018-11-01T05:24:26.887Z,0
2018-11-01T05:25:35.815Z,0
2018-11-01T05:26:44.429Z,0
2018-11-01T05:27:53.080Z,0
2018-11-01T05:29:01.713Z,0
2018-11-01T05:30:10.347Z,0
2018-11-01T05:31:18.982Z,0
2018-11-01T05:32:27.620Z,0
2018-11-01T05:33:36.267Z,0
2018-11-01T05:34:44.900Z,0
2018-11-01T05:35:53.815Z,0
2018-11-01T05:37:02.442Z,0
2018-11-01T05:38:11.087Z,0
2018-11-01T05:39:19.725Z,0
2018-11-01T05:40:28.630Z,0
2018-11-01T05:41:37.529Z,0
2018-11-01T05:42:46.171Z,0
2018-11-01T05:43:55.073Z,0
2018-11-01T05:45:03.711Z,0
2018-11-01T05:46:12.344Z,0
2018-11-01T05:47:20.980Z,0
2018-11-01T05:48:29.620Z,0
2018-11-01T05:49:38.261Z,0
2018-11-01T05:50:47.167Z,0
2018-11-01T05:51:55.802Z,0
2018-11-01T05:53:04.708Z,0
2018-11-01T05:54:13.348Z,0
2018-11-01T05:55:21.993Z,4
2018-11-01T05:56:30.628Z,4
2018-11-01T05:57:39.270Z,0
2018-11-01T05:58:47.905Z,4
2018-11-01T05:59:56.567Z,4
2018-11-01T06:01:05.184Z,4
2018-11-01T06:02:13.824Z,4
2018-11-01T06:03:22.459Z,4
2018-11-01T06:04:31.107Z,8
2018-11-01T06:05:40.047Z,8
2018-11-01T06:06:48.643Z,12
2018-11-01T06:07:57.552Z,12
2018-11-01T06:09:06.723Z,16
2018-11-01T06:10:15.370Z,16
2018-11-01T06:11:24.014Z,20
2018-11-01T06:12:32.764Z,24
2018-11-01T06:13:41.284Z,28
2018-11-01T06:14:49.925Z,36
2018-11-01T06:15:58.822Z,40
2018-11-01T06:17:07.461Z,40
2018-11-01T06:18:16.098Z,48
2018-11-01T06:19:24.742Z,52
2018-11-01T06:20:33.721Z,56
2018-11-01T06:21:42.303Z,64
2018-11-01T06:22:50.934Z,76
2018-11-01T06:23:59.576Z,80
2018-11-01T06:25:08.494Z,92
2018-11-01T06:26:17.130Z,100
2018-11-01T06:27:25.770Z,108
2018-11-01T06:28:34.405Z,120
2018-11-01T06:29:43.042Z,128
2018-11-01T06:30:51.943Z,132
2018-11-01T06:32:00.587Z,140
2018-11-01T06:33:09.482Z,148
2018-11-01T06:34:18.121Z,160
2018-11-01T06:35:26.756Z,172
2018-11-01T06:36:35.395Z,180
2018-11-01T06:37:44.034Z,188
2018-11-01T06:38:52.933Z,200
2018-11-01T06:40:01.578Z,212
2018-11-01T06:41:10.478Z,220
2018-11-01T06:42:19.121Z,232
2018-11-01T06:43:27.764Z,240
2018-11-01T06:44:36.476Z,256
2018-11-01T06:45:45.296Z,264
2018-11-01T06:46:53.935Z,272
2018-11-01T06:48:02.576Z,284
2018-11-01T06:49:11.213Z,296
2018-11-01T06:50:19.850Z,308
2018-11-01T06:51:28.492Z,320
2018-11-01T06:52:37.546Z,332
2018-11-01T06:53:46.148Z,344
2018-11-01T06:54:54.776Z,360
2018-11-01T06:56:03.419Z,368
2018-11-01T06:57:12.324Z,380
2018-11-01T06:58:21.450Z,388
2018-11-01T06:59:30.577Z,396
2018-11-01T07:00:39.382Z,400
2018-11-01T07:01:48.029Z,404
2018-11-01T07:02:56.661Z,412
2018-11-01T07:04:05.301Z,420
2018-11-01T07:05:14.208Z,432
2018-11-01T07:06:22.838Z,448
2018-11-01T07:07:31.478Z,464
2018-11-01T07:08:40.118Z,484
2018-11-01T07:09:48.760Z,500
2018-11-01T07:10:57.396Z,516
2018-11-01T07:12:06.036Z,528
2018-11-01T07:13:14.681Z,540
2018-11-01T07:14:23.315Z,548
2018-11-01T07:15:31.958Z,556
2018-11-01T07:16:40.591Z,560
2018-11-01T07:17:49.237Z,560
2018-11-01T07:18:57.877Z,560
2018-11-01T07:20:06.522Z,564
2018-11-01T07:21:15.159Z,568
2018-11-01T07:22:23.795Z,576
2018-11-01T07:23:32.435Z,592
2018-11-01T07:24:41.079Z,604
2018-11-01T07:25:50.081Z,616
2018-11-01T07:26:58.691Z,632
2018-11-01T07:28:07.595Z,640
2018-11-01T07:29:16.494Z,656
2018-11-01T07:30:25.133Z,676
2018-11-01T07:31:34.029Z,692
2018-11-01T07:32:43.406Z,712
2018-11-01T07:33:51.995Z,740
2018-11-01T07:35:00.904Z,768
2018-11-01T07:36:09.800Z,808
2018-11-01T07:37:18.698Z,848
2018-11-01T07:38:27.342Z,888
2018-11-01T07:39:35.989Z,940
2018-11-01T07:40:44.621Z,996
2018-11-01T07:41:53.251Z,1056
2018-11-01T07:43:01.893Z,1128
2018-11-01T07:44:10.529Z,1200
2018-11-01T07:45:19.176Z,1284
2018-11-01T07:46:28.065Z,1364
2018-11-01T07:47:36.706Z,1440
2018-11-01T07:48:45.433Z,1496
2018-11-01T07:49:53.987Z,1548
2018-11-01T07:51:02.878Z,1588
2018-11-01T07:52:11.520Z,1612
2018-11-01T07:53:20.415Z,1620
2018-11-01T07:54:29.328Z,1612
2018-11-01T07:55:37.962Z,1592
2018-11-01T07:56:46.595Z,1572
2018-11-01T07:57:55.233Z,1564
2018-11-01T07:59:03.874Z,1556
2018-11-01T08:00:12.522Z,1552
2018-11-01T08:01:21.155Z,1560
2018-11-01T08:02:29.803Z,1572
2018-11-01T08:03:38.428Z,1588
2018-11-01T08:04:47.076Z,1584
2018-11-01T08:05:55.803Z,1564
2018-11-01T08:07:04.918Z,1540
2018-11-01T08:08:13.806Z,1512
2018-11-01T08:09:22.456Z,1484
2018-11-01T08:10:31.087Z,1456
2018-11-01T08:11:39.745Z,1424
2018-11-01T08:12:48.363Z,1404
2018-11-01T08:13:57.266Z,1392
2018-11-01T08:15:05.908Z,1388
2018-11-01T08:16:14.549Z,1380
2018-11-01T08:17:23.191Z,1388
2018-11-01T08:18:31.822Z,1412
2018-11-01T08:19:40.552Z,1440
2018-11-01T08:20:49.724Z,1472
2018-11-01T08:21:58.176Z,1504
2018-11-01T08:23:06.805Z,1540
2018-11-01T08:24:15.447Z,1572
2018-11-01T08:25:24.086Z,1604
2018-11-01T08:26:32.732Z,1640
2018-11-01T08:27:41.420Z,1684
2018-11-01T08:28:50.343Z,1736
2018-11-01T08:29:58.984Z,1792
2018-11-01T08:31:07.634Z,1868
2018-11-01T08:32:16.530Z,1944
2018-11-01T08:33:25.165Z,2012
2018-11-01T08:34:34.070Z,2060
2018-11-01T08:35:42.971Z,2104
2018-11-01T08:36:51.862Z,2148
2018-11-01T08:38:01.034Z,2176
2018-11-01T08:39:09.681Z,2212
2018-11-01T08:40:18.316Z,2224
2018-11-01T08:41:26.950Z,2240
2018-11-01T08:42:35.593Z,2252
2018-11-01T08:43:44.493Z,2252
2018-11-01T08:44:53.144Z,2264
2018-11-01T08:46:01.772Z,2276
2018-11-01T08:47:10.412Z,2304
2018-11-01T08:48:19.048Z,2348
2018-11-01T08:49:27.817Z,2376
2018-11-01T08:50:36.333Z,2408
2018-11-01T08:51:44.968Z,2440
2018-11-01T08:52:53.610Z,2484
2018-11-01T08:54:02.517Z,2532
2018-11-01T08:55:11.434Z,2588
2018-11-01T08:56:20.076Z,2612
2018-11-01T08:57:28.719Z,2632
2018-11-01T08:58:37.881Z,2628
2018-11-01T08:59:46.532Z,2620
2018-11-01T09:00:55.430Z,2616
2018-11-01T09:02:04.074Z,2624
2018-11-01T09:03:12.705Z,2636
2018-11-01T09:04:21.457Z,2668
2018-11-01T09:05:29.992Z,2716
2018-11-01T09:06:38.635Z,2772
2018-11-01T09:07:48.152Z,2824
2018-11-01T09:08:56.513Z,2844
2018-11-01T09:10:05.427Z,2828
2018-11-01T09:11:14.069Z,2820
2018-11-01T09:12:22.713Z,2796
2018-11-01T09:13:31.343Z,2768
2018-11-01T09:14:40.096Z,2784
2018-11-01T09:15:48.624Z,2832
2018-11-01T09:16:57.273Z,2880
2018-11-01T09:18:05.905Z,2920
2018-11-01T09:19:14.594Z,2948
2018-11-01T09:20:23.451Z,2964
2018-11-01T09:21:32.097Z,2968
2018-11-01T09:22:40.729Z,2952
2018-11-01T09:23:49.374Z,2904
2018-11-01T09:24:58.011Z,2828
2018-11-01T09:26:06.659Z,2776
2018-11-01T09:27:15.311Z,2776
2018-11-01T09:28:24.213Z,2808
2018-11-01T09:29:33.386Z,2836
2018-11-01T09:30:42.027Z,2832
2018-11-01T09:31:50.679Z,2800
2018-11-01T09:32:59.411Z,2760
2018-11-01T09:34:07.971Z,2728
2018-11-01T09:35:16.594Z,2708
2018-11-01T09:36:25.238Z,2692
2018-11-01T09:37:33.878Z,2676
2018-11-01T09:38:42.783Z,2668
2018-11-01T09:39:51.419Z,2676
2018-11-01T09:41:00.066Z,2696
2018-11-01T09:42:08.708Z,2736
2018-11-01T09:43:17.353Z,2776
2018-11-01T09:44:25.991Z,2812
2018-11-01T09:45:34.637Z,2840
2018-11-01T09:46:43.615Z,2860
2018-11-01T09:47:52.237Z,2872
2018-11-01T09:49:00.829Z,2884
2018-11-01T09:50:09.739Z,2896
2018-11-01T09:51:18.388Z,2912
2018-11-01T09:52:27.288Z,2920
2018-11-01T09:53:35.935Z,2924
2018-11-01T09:54:44.831Z,2936
2018-11-01T09:55:54.393Z,2952
2018-11-01T09:57:02.778Z,2972
2018-11-01T09:58:11.422Z,2996
2018-11-01T09:59:20.059Z,3024
2018-11-01T10:00:28.701Z,3056
2018-11-01T10:01:37.340Z,3088
2018-11-01T10:02:45.987Z,3096
2018-11-01T10:03:54.633Z,3096
2018-11-01T10:05:03.275Z,3088
2018-11-01T10:06:11.983Z,3092
2018-11-01T10:07:20.556Z,3116
2018-11-01T10:08:29.201Z,3148
2018-11-01T10:09:37.842Z,3176
2018-11-01T10:10:46.484Z,3208
2018-11-01T10:11:55.120Z,3232
2018-11-01T10:13:03.766Z,3244
2018-11-01T10:14:12.404Z,3232
2018-11-01T10:15:21.153Z,3216
2018-11-01T10:16:30.399Z,3196
2018-11-01T10:17:39.343Z,3180
2018-11-01T10:18:47.518Z,3164
2018-11-01T10:19:56.430Z,3148
2018-11-01T10:21:05.388Z,3120
2018-11-01T10:22:14.421Z,3096
2018-11-01T10:23:22.999Z,3076
2018-11-01T10:24:31.645Z,3076
2018-11-01T10:25:40.285Z,3088
2018-11-01T10:26:48.925Z,3120
2018-11-01T10:27:57.563Z,3156
2018-11-01T10:29:06.212Z,3180
2018-11-01T10:30:14.858Z,3204
2018-11-01T10:31:23.777Z,3216
2018-11-01T10:32:32.424Z,3212
2018-11-01T10:33:41.075Z,3200
2018-11-01T10:34:49.717Z,3168
2018-11-01T10:35:58.345Z,3116
2018-11-01T10:37:06.990Z,3048
2018-11-01T10:38:15.628Z,2980
2018-11-01T10:39:24.280Z,2920
2018-11-01T10:40:32.965Z,2872
2018-11-01T10:41:41.840Z,2832
2018-11-01T10:42:50.485Z,2784
2018-11-01T10:43:59.123Z,2744
2018-11-01T10:45:08.040Z,2712
2018-11-01T10:46:16.681Z,2680
2018-11-01T10:47:25.638Z,2676
2018-11-01T10:48:34.226Z,2700
2018-11-01T10:49:42.891Z,2724
2018-11-01T10:50:51.517Z,2728
2018-11-01T10:52:00.429Z,2716
2018-11-01T10:53:09.059Z,2700
2018-11-01T10:54:17.775Z,2688
2018-11-01T10:55:26.349Z,2676
2018-11-01T10:56:35.260Z,2664
2018-11-01T10:57:43.893Z,2648
2018-11-01T10:58:52.819Z,2640
2018-11-01T11:00:01.989Z,2636
2018-11-01T11:01:11.127Z,2640
2018-11-01T11:02:19.720Z,2660
2018-11-01T11:03:28.356Z,2684
2018-11-01T11:04:36.995Z,2704
2018-11-01T11:05:45.629Z,2708
2018-11-01T11:06:54.281Z,2720
2018-11-01T11:08:03.712Z,2720
2018-11-01T11:09:12.359Z,2728
2018-11-01T11:10:21.267Z,2744
2018-11-01T11:11:29.919Z,2772
2018-11-01T11:12:38.550Z,2808
2018-11-01T11:13:47.459Z,2852
2018-11-01T11:14:56.108Z,2900
2018-11-01T11:16:04.751Z,2956
2018-11-01T11:17:13.389Z,3008
2018-11-01T11:18:22.028Z,3060
2018-11-01T11:19:30.668Z,3092
2018-11-01T11:20:39.497Z,3104
2018-11-01T11:21:47.967Z,3108
2018-11-01T11:22:56.605Z,3096
2018-11-01T11:24:05.252Z,3092
2018-11-01T11:25:13.885Z,3076
2018-11-01T11:26:22.801Z,3048
2018-11-01T11:27:31.444Z,3008
2018-11-01T11:28:40.092Z,2968
2018-11-01T11:29:48.742Z,2928
2018-11-01T11:30:57.375Z,2876
2018-11-01T11:32:06.017Z,2808
2018-11-01T11:33:14.662Z,2740
2018-11-01T11:34:23.305Z,2684
2018-11-01T11:35:32.467Z,2656
2018-11-01T11:36:41.085Z,2660
2018-11-01T11:37:49.731Z,2684
2018-11-01T11:38:58.409Z,2696
2018-11-01T11:40:07.388Z,2688
2018-11-01T11:41:16.032Z,2664
2018-11-01T11:42:24.682Z,2624
2018-11-01T11:43:33.323Z,2556
2018-11-01T11:44:42.224Z,2456
2018-11-01T11:45:50.867Z,2356
2018-11-01T11:46:59.508Z,2280
2018-11-01T11:48:08.166Z,2240
2018-11-01T11:49:16.794Z,2212
2018-11-01T11:50:25.440Z,2192
2018-11-01T11:51:34.245Z,2176
2018-11-01T11:52:42.739Z,2160
2018-11-01T11:53:51.655Z,2144
2018-11-01T11:55:00.562Z,2136
2018-11-01T11:56:09.204Z,2136
2018-11-01T11:57:18.265Z,2144
2018-11-01T11:58:26.911Z,2144
2018-11-01T11:59:35.557Z,2144
2018-11-01T12:00:44.201Z,2140
2018-11-01T12:01:52.893Z,2164
2018-11-01T12:03:01.805Z,2208
2018-11-01T12:04:10.447Z,2232
2018-11-01T12:05:19.500Z,2224
2018-11-01T12:06:28.734Z,2172
2018-11-01T12:07:37.380Z,2112
2018-11-01T12:08:46.024Z,2072
2018-11-01T12:09:54.934Z,2068
2018-11-01T12:11:03.570Z,2100
2018-11-01T12:12:12.215Z,2168
2018-11-01T12:13:20.859Z,2208
2018-11-01T12:14:29.500Z,2192
2018-11-01T12:15:38.144Z,2132
2018-11-01T12:16:46.787Z,2060
2018-11-01T12:17:55.427Z,2008
2018-11-01T12:19:04.070Z,1980
2018-11-01T12:20:12.719Z,1988
2018-11-01T12:21:21.353Z,2012
2018-11-01T12:22:30.534Z,2020
2018-11-01T12:23:39.093Z,1980
2018-11-01T12:24:47.740Z,1904
2018-11-01T12:25:56.378Z,1808
2018-11-01T12:27:05.024Z,1712
2018-11-01T12:28:13.687Z,1640
2018-11-01T12:29:22.305Z,1604
2018-11-01T12:30:30.950Z,1600
2018-11-01T12:31:39.593Z,1612
2018-11-01T12:32:48.238Z,1628
2018-11-01T12:33:56.884Z,1632
2018-11-01T12:35:05.626Z,1608
2018-11-01T12:36:14.362Z,1540
2018-11-01T12:37:22.806Z,1444
2018-11-01T12:38:31.453Z,1360
2018-11-01T12:39:40.090Z,1300
2018-11-01T12:40:48.733Z,1260
2018-11-01T12:41:57.637Z,1240
2018-11-01T12:43:06.304Z,1228
2018-11-01T12:44:15.197Z,1208
2018-11-01T12:45:23.842Z,1168
2018-11-01T12:46:32.483Z,1128
2018-11-01T12:47:41.132Z,1116
2018-11-01T12:48:49.772Z,1128
2018-11-01T12:49:58.577Z,1152
2018-11-01T12:51:07.554Z,1188
2018-11-01T12:52:16.194Z,1208
2018-11-01T12:53:24.840Z,1220
2018-11-01T12:54:33.485Z,1232
2018-11-01T12:55:42.129Z,1252
2018-11-01T12:56:50.769Z,1272
2018-11-01T12:57:59.415Z,1280
2018-11-01T12:59:08.057Z,1248
2018-11-01T13:00:16.701Z,1200
2018-11-01T13:01:25.338Z,1144
2018-11-01T13:02:34.056Z,1100
2018-11-01T13:03:42.627Z,1072
2018-11-01T13:04:51.274Z,1064
2018-11-01T13:05:59.910Z,1064
2018-11-01T13:07:08.566Z,1060
2018-11-01T13:08:17.473Z,1024
2018-11-01T13:09:26.117Z,972
2018-11-01T13:10:34.818Z,908
2018-11-01T13:11:43.762Z,852
2018-11-01T13:12:52.671Z,824
2018-11-01T13:14:01.315Z,828
2018-11-01T13:15:09.963Z,852
2018-11-01T13:16:19.138Z,884
2018-11-01T13:17:28.053Z,920
2018-11-01T13:18:36.981Z,940
2018-11-01T13:19:45.628Z,952
2018-11-01T13:20:54.527Z,952
2018-11-01T13:22:03.174Z,952
2018-11-01T13:23:11.815Z,936
2018-11-01T13:24:20.730Z,916
2018-11-01T13:25:29.372Z,888
2018-11-01T13:26:38.016Z,852
2018-11-01T13:27:46.652Z,816
2018-11-01T13:28:55.294Z,788
2018-11-01T13:30:04.221Z,760
2018-11-01T13:31:12.855Z,748
2018-11-01T13:32:21.500Z,752
2018-11-01T13:33:30.405Z,764
2018-11-01T13:34:39.413Z,772
2018-11-01T13:35:48.020Z,780
2018-11-01T13:36:56.930Z,780
2018-11-01T13:38:05.830Z,772
2018-11-01T13:39:14.758Z,760
2018-11-01T13:40:24.076Z,740
2018-11-01T13:41:32.404Z,728
2018-11-01T13:42:41.001Z,724
2018-11-01T13:43:49.644Z,732
2018-11-01T13:44:58.292Z,752
2018-11-01T13:46:06.932Z,764
2018-11-01T13:47:15.661Z,776
2018-11-01T13:48:25.310Z,780
2018-11-01T13:49:34.590Z,784
2018-11-01T13:50:43.485Z,776
2018-11-01T13:51:52.397Z,756
2018-11-01T13:53:01.294Z,724
2018-11-01T13:54:09.944Z,676
2018-11-01T13:55:18.581Z,628
2018-11-01T13:56:27.604Z,580
2018-11-01T13:57:36.223Z,540
2018-11-01T13:58:44.868Z,520
2018-11-01T13:59:53.507Z,524
2018-11-01T14:01:02.157Z,548
2018-11-01T14:02:11.060Z,580
2018-11-01T14:03:19.965Z,604
2018-11-01T14:04:28.601Z,620
2018-11-01T14:05:37.304Z,616
2018-11-01T14:06:45.892Z,604
2018-11-01T14:07:54.539Z,588
2018-11-01T14:09:03.184Z,568
2018-11-01T14:10:11.819Z,560
2018-11-01T14:11:20.472Z,548
2018-11-01T14:12:29.111Z,540
2018-11-01T14:13:38.063Z,532
2018-11-01T14:14:47.575Z,528
2018-11-01T14:15:56.650Z,520
2018-11-01T14:17:05.290Z,512
2018-11-01T14:18:14.213Z,500
2018-11-01T14:19:22.842Z,492
2018-11-01T14:20:31.484Z,488
2018-11-01T14:21:40.400Z,484
2018-11-01T14:22:49.044Z,476
2018-11-01T14:23:58.218Z,468
2018-11-01T14:25:06.851Z,464
2018-11-01T14:26:15.495Z,460
2018-11-01T14:27:24.135Z,460
2018-11-01T14:28:32.773Z,456
2018-11-01T14:29:41.417Z,452
2018-11-01T14:30:50.084Z,444
2018-11-01T14:31:58.964Z,432
2018-11-01T14:33:07.603Z,416
2018-11-01T14:34:16.246Z,408
2018-11-01T14:35:24.890Z,396
2018-11-01T14:36:33.532Z,392
2018-11-01T14:37:42.196Z,388
2018-11-01T14:38:50.810Z,388
2018-11-01T14:39:59.985Z,388
2018-11-01T14:41:08.628Z,388
2018-11-01T14:42:17.273Z,388
2018-11-01T14:43:25.907Z,376
2018-11-01T14:44:34.699Z,364
2018-11-01T14:45:43.633Z,344
2018-11-01T14:46:52.277Z,324
2018-11-01T14:48:00.918Z,300
2018-11-01T14:49:09.556Z,284
2018-11-01T14:50:18.201Z,268
2018-11-01T14:51:26.846Z,252
2018-11-01T14:52:35.957Z,240
2018-11-01T14:53:44.296Z,228
2018-11-01T14:54:54.232Z,216
2018-11-01T14:56:02.564Z,204
2018-11-01T14:57:11.418Z,192
2018-11-01T14:58:20.240Z,188
2018-11-01T14:59:31.238Z,188
2018-11-01T15:00:38.222Z,184
2018-11-01T15:01:46.880Z,184
2018-11-01T15:02:55.785Z,184
2018-11-01T15:04:04.428Z,184
2018-11-01T15:05:13.334Z,176
2018-11-01T15:06:22.002Z,168
2018-11-01T15:07:30.932Z,160
2018-11-01T15:08:39.571Z,156
2018-11-01T15:09:48.209Z,152
2018-11-01T15:10:57.200Z,148
2018-11-01T15:12:05.847Z,144
2018-11-01T15:13:14.722Z,144
2018-11-01T15:14:23.138Z,144
2018-11-01T15:15:31.884Z,140
2018-11-01T15:16:41.092Z,136
2018-11-01T15:17:49.783Z,132
2018-11-01T15:18:58.410Z,124
2018-11-01T15:20:07.018Z,112
2018-11-01T15:21:15.668Z,108
2018-11-01T15:22:24.307Z,100
2018-11-01T15:23:32.957Z,96
2018-11-01T15:24:41.642Z,88
2018-11-01T15:25:50.561Z,84
2018-11-01T15:26:59.198Z,76
2018-11-01T15:28:07.851Z,76
2018-11-01T15:29:16.483Z,72
2018-11-01T15:30:25.126Z,72
2018-11-01T15:31:33.763Z,68
2018-11-01T15:32:42.702Z,64
2018-11-01T15:33:51.370Z,60
2018-11-01T15:34:59.955Z,56
2018-11-01T15:36:08.594Z,52
2018-11-01T15:37:17.562Z,52
2018-11-01T15:38:26.261Z,48
2018-11-01T15:39:34.925Z,48
2018-11-01T15:40:43.572Z,48
2018-11-01T15:41:52.204Z,48
2018-11-01T15:43:00.853Z,40
2018-11-01T15:44:09.546Z,40
2018-11-01T15:45:18.232Z,36
2018-11-01T15:46:26.928Z,32
2018-11-01T15:47:36.213Z,32
2018-11-01T15:48:44.850Z,28
2018-11-01T15:49:53.647Z,28
2018-11-01T15:51:02.284Z,24
2018-11-01T15:52:10.922Z,20
2018-11-01T15:53:19.566Z,20
2018-11-01T15:54:28.210Z,20
2018-11-01T15:55:37.407Z,16
2018-11-01T15:56:46.038Z,16
2018-11-01T15:57:55.019Z,12
2018-11-01T15:59:03.891Z,16
2018-11-01T16:00:12.550Z,16
2018-11-01T16:01:21.730Z,12
2018-11-01T16:02:30.380Z,12